createdAt,value
2022-09-28T00:00:35.495Z,979.31
2022-09-28T00:01:35.716Z,979.38
2022-09-28T00:02:35.579Z,979.34
2022-09-28T00:03:35.454Z,979.32
2022-09-28T00:04:35.453Z,979.34
2022-09-28T00:05:35.433Z,979.26
2022-09-28T00:06:35.425Z,979.30
2022-09-28T00:07:35.433Z,979.34
2022-09-28T00:08:35.403Z,979.20
2022-09-28T00:09:35.384Z,979.18
2022-09-28T00:10:35.377Z,979.24
2022-09-28T00:11:35.364Z,979.24
2022-09-28T00:12:35.380Z,979.22
2022-09-28T00:13:35.344Z,979.25
2022-09-28T00:14:35.336Z,979.16
2022-09-28T00:15:35.314Z,979.22
2022-09-28T00:16:35.398Z,979.25
2022-09-28T00:17:35.294Z,979.20
2022-09-28T00:18:35.336Z,979.24
2022-09-28T00:19:35.275Z,979.15
2022-09-28T00:20:35.264Z,979.18
2022-09-28T00:21:35.253Z,979.11
2022-09-28T00:22:35.253Z,979.12
2022-09-28T00:23:35.234Z,979.13
2022-09-28T00:24:35.234Z,979.11
2022-09-28T00:25:35.214Z,979.13
2022-09-28T00:26:35.194Z,979.10
2022-09-28T00:27:35.190Z,979.10
2022-09-28T00:28:35.173Z,979.08
2022-09-28T00:29:35.235Z,979.07
2022-09-28T00:30:35.155Z,979.07
2022-09-28T00:31:35.183Z,979.06
2022-09-28T00:32:35.137Z,979.10
2022-09-28T00:33:35.114Z,979.04
2022-09-28T00:34:35.121Z,979.07
2022-09-28T00:35:35.117Z,979.07
2022-09-28T00:36:35.083Z,979.05
2022-09-28T00:37:35.076Z,979.05
2022-09-28T00:38:35.062Z,979.00
2022-09-28T00:39:35.044Z,978.93
2022-09-28T00:40:35.074Z,978.94
2022-09-28T00:41:35.043Z,978.94
2022-09-28T00:42:35.022Z,978.94
2022-09-28T00:43:35.024Z,978.92
2022-09-28T00:44:34.994Z,978.91
2022-09-28T00:45:35.127Z,978.87
2022-09-28T00:46:34.973Z,978.82
2022-09-28T00:47:34.973Z,978.88
2022-09-28T00:48:34.947Z,978.79
2022-09-28T00:49:34.933Z,978.81
2022-09-28T00:50:34.926Z,978.80
2022-09-28T00:51:34.934Z,978.72
2022-09-28T00:52:34.933Z,978.69
2022-09-28T00:53:34.899Z,978.66
2022-09-28T00:54:34.882Z,978.67
2022-09-28T00:55:34.873Z,978.59
2022-09-28T00:56:34.884Z,978.61
2022-09-28T00:57:34.843Z,978.47
2022-09-28T00:58:34.853Z,978.46
2022-09-28T00:59:34.814Z,978.37
2022-09-28T01:00:34.841Z,978.36
2022-09-28T01:01:34.801Z,978.39
2022-09-28T01:02:34.793Z,978.32
2022-09-28T01:03:34.774Z,978.35
2022-09-28T01:04:34.794Z,978.31
2022-09-28T01:05:34.753Z,978.30
2022-09-28T01:06:34.743Z,978.27
2022-09-28T01:07:34.734Z,978.24
2022-09-28T01:08:34.723Z,978.24
2022-09-28T01:09:34.702Z,978.18
2022-09-28T01:10:34.735Z,978.23
2022-09-28T01:11:34.691Z,978.16
2022-09-28T01:12:34.674Z,978.21
2022-09-28T01:13:34.665Z,978.26
2022-09-28T01:14:34.653Z,978.25
2022-09-28T01:15:34.640Z,978.23
2022-09-28T01:16:34.746Z,978.20
2022-09-28T01:17:34.613Z,978.14
2022-09-28T01:18:34.611Z,978.09
2022-09-28T01:19:34.591Z,978.12
2022-09-28T01:20:34.582Z,978.08
2022-09-28T01:21:34.564Z,978.12
2022-09-28T01:22:34.622Z,978.06
2022-09-28T01:23:34.558Z,978.05
2022-09-28T01:24:34.545Z,978.05
2022-09-28T01:25:34.524Z,978.10
2022-09-28T01:26:34.515Z,978.06
2022-09-28T01:27:34.503Z,978.06
2022-09-28T01:28:34.534Z,978.03
2022-09-28T01:29:34.483Z,978.01
2022-09-28T01:30:34.472Z,978.01
2022-09-28T01:31:34.529Z,978.01
2022-09-28T01:32:34.452Z,977.98
2022-09-28T01:33:34.434Z,977.94
2022-09-28T01:34:34.443Z,977.99
2022-09-28T01:35:34.412Z,977.96
2022-09-28T01:36:34.403Z,977.96
2022-09-28T01:37:34.383Z,977.95
2022-09-28T01:38:34.386Z,977.96
2022-09-28T01:39:34.389Z,977.91
2022-09-28T01:40:34.398Z,977.91
2022-09-28T01:41:34.343Z,977.88
2022-09-28T01:42:34.341Z,977.92
2022-09-28T01:43:34.328Z,977.86
2022-09-28T01:44:34.311Z,977.88
2022-09-28T01:45:34.349Z,977.90
2022-09-28T01:46:34.294Z,977.87
2022-09-28T01:47:34.283Z,977.86
2022-09-28T01:48:34.264Z,977.79
2022-09-28T01:49:34.273Z,977.87
2022-09-28T01:50:34.246Z,977.82
2022-09-28T01:51:34.243Z,977.76
2022-09-28T01:52:34.213Z,977.78
2022-09-28T01:53:34.213Z,977.76
2022-09-28T01:54:34.201Z,977.68
2022-09-28T01:55:34.186Z,977.69
2022-09-28T01:56:35.921Z,977.76
2022-09-28T01:57:34.164Z,977.70
2022-09-28T01:58:34.153Z,977.71
2022-09-28T01:59:34.142Z,977.72
2022-09-28T02:00:34.151Z,977.72
2022-09-28T02:01:34.122Z,977.64
2022-09-28T02:02:34.207Z,977.65
2022-09-28T02:03:34.105Z,977.65
2022-09-28T02:04:34.093Z,977.63
2022-09-28T02:05:34.076Z,977.59
2022-09-28T02:06:34.061Z,977.62
2022-09-28T02:07:34.083Z,977.64
2022-09-28T02:08:34.052Z,977.60
2022-09-28T02:09:34.032Z,977.61
2022-09-28T02:10:34.012Z,977.54
2022-09-28T02:11:34.013Z,977.54
2022-09-28T02:12:34.003Z,977.50
2022-09-28T02:13:33.982Z,977.52
2022-09-28T02:14:33.983Z,977.44
2022-09-28T02:15:33.960Z,977.50
2022-09-28T02:16:33.992Z,977.43
2022-09-28T02:17:33.943Z,977.49
2022-09-28T02:18:33.926Z,977.49
2022-09-28T02:19:33.943Z,977.50
2022-09-28T02:20:33.909Z,977.46
2022-09-28T02:21:33.898Z,977.43
2022-09-28T02:22:33.895Z,977.42
2022-09-28T02:23:33.884Z,977.32
2022-09-28T02:24:33.853Z,977.37
2022-09-28T02:25:33.912Z,977.36
2022-09-28T02:26:33.832Z,977.42
2022-09-28T02:27:33.824Z,977.34
2022-09-28T02:28:33.810Z,977.42
2022-09-28T02:29:33.802Z,977.38
2022-09-28T02:30:33.851Z,977.51
2022-09-28T02:31:33.873Z,977.38
2022-09-28T02:32:33.784Z,977.40
2022-09-28T02:33:33.752Z,977.37
2022-09-28T02:34:33.741Z,977.39
2022-09-28T02:35:33.738Z,977.38
2022-09-28T02:36:33.731Z,977.36
2022-09-28T02:37:33.731Z,977.39
2022-09-28T02:38:33.704Z,977.35
2022-09-28T02:39:33.693Z,977.34
2022-09-28T02:40:33.727Z,977.28
2022-09-28T02:41:33.692Z,977.35
2022-09-28T02:42:33.813Z,977.37
2022-09-28T02:43:33.683Z,977.27
2022-09-28T02:44:33.630Z,977.32
2022-09-28T02:45:33.717Z,977.28
2022-09-28T02:46:33.609Z,977.24
2022-09-28T02:47:33.632Z,977.27
2022-09-28T02:48:43.509Z,977.20
2022-09-28T02:49:34.581Z,977.24
2022-09-28T02:50:33.571Z,977.29
2022-09-28T02:51:33.607Z,977.23
2022-09-28T02:52:33.541Z,977.15
2022-09-28T02:53:33.632Z,977.19
2022-09-28T02:54:33.552Z,977.23
2022-09-28T02:55:33.522Z,977.17
2022-09-28T02:56:33.491Z,977.20
2022-09-28T02:57:33.493Z,977.16
2022-09-28T02:58:33.472Z,977.20
2022-09-28T02:59:33.462Z,977.20
2022-09-28T03:00:33.530Z,977.19
2022-09-28T03:01:33.441Z,977.16
2022-09-28T03:02:33.423Z,977.19
2022-09-28T03:03:33.421Z,977.15
2022-09-28T03:04:33.401Z,977.16
2022-09-28T03:05:33.392Z,977.15
2022-09-28T03:06:33.402Z,977.12
2022-09-28T03:07:33.371Z,977.11
2022-09-28T03:08:33.354Z,977.16
2022-09-28T03:09:33.350Z,977.16
2022-09-28T03:10:40.418Z,977.11
2022-09-28T03:11:33.328Z,977.11
2022-09-28T03:12:33.335Z,977.05
2022-09-28T03:13:33.301Z,977.20
2022-09-28T03:14:33.279Z,977.17
2022-09-28T03:15:33.287Z,977.18
2022-09-28T03:16:33.323Z,977.24
2022-09-28T03:17:33.261Z,977.21
2022-09-28T03:18:33.269Z,977.22
2022-09-28T03:19:33.234Z,977.22
2022-09-28T03:20:33.220Z,977.25
2022-09-28T03:21:33.209Z,977.24
2022-09-28T03:22:33.197Z,977.27
2022-09-28T03:23:33.187Z,977.32
2022-09-28T03:24:33.189Z,977.28
2022-09-28T03:25:33.167Z,977.30
2022-09-28T03:26:33.150Z,977.27
2022-09-28T03:27:33.140Z,977.28
2022-09-28T03:28:33.128Z,977.26
2022-09-28T03:29:33.143Z,977.32
2022-09-28T03:30:33.104Z,977.30
2022-09-28T03:31:33.188Z,977.30
2022-09-28T03:32:33.088Z,977.32
2022-09-28T03:33:33.071Z,977.28
2022-09-28T03:34:33.059Z,977.35
2022-09-28T03:35:33.069Z,977.29
2022-09-28T03:36:33.038Z,977.31
2022-09-28T03:37:33.029Z,977.30
2022-09-28T03:38:33.012Z,977.31
2022-09-28T03:39:33.010Z,977.30
2022-09-28T03:40:33.027Z,977.31
2022-09-28T03:41:32.999Z,977.30
2022-09-28T03:42:32.968Z,977.30
2022-09-28T03:43:32.966Z,977.28
2022-09-28T03:44:32.949Z,977.30
2022-09-28T03:45:33.016Z,977.36
2022-09-28T03:46:32.918Z,977.32
2022-09-28T03:47:32.929Z,977.26
2022-09-28T03:48:33.171Z,977.30
2022-09-28T03:49:32.890Z,977.32
2022-09-28T03:50:32.869Z,977.30
2022-09-28T03:51:32.859Z,977.30
2022-09-28T03:52:32.878Z,977.31
2022-09-28T03:53:32.850Z,977.37
2022-09-28T03:54:32.829Z,977.31
2022-09-28T03:55:32.821Z,977.31
2022-09-28T03:56:32.801Z,977.30
2022-09-28T03:57:32.801Z,977.32
2022-09-28T03:58:32.798Z,977.31
2022-09-28T03:59:32.778Z,977.32
2022-09-28T04:00:32.846Z,977.33
2022-09-28T04:01:32.834Z,977.31
2022-09-28T04:02:32.816Z,977.27
2022-09-28T04:03:32.749Z,977.32
2022-09-28T04:04:32.712Z,977.23
2022-09-28T04:05:32.707Z,977.29
2022-09-28T04:06:32.690Z,977.25
2022-09-28T04:07:32.679Z,977.31
2022-09-28T04:08:32.668Z,977.28
2022-09-28T04:09:32.678Z,977.22
2022-09-28T04:10:32.639Z,977.27
2022-09-28T04:11:47.576Z,977.23
2022-09-28T04:12:33.620Z,977.28
2022-09-28T04:13:32.609Z,977.27
2022-09-28T04:14:32.621Z,977.28
2022-09-28T04:15:32.588Z,977.26
2022-09-28T04:16:32.590Z,977.27
2022-09-28T04:17:35.489Z,977.29
2022-09-28T04:18:33.563Z,977.29
2022-09-28T04:19:32.541Z,977.27
2022-09-28T04:20:32.550Z,977.30
2022-09-28T04:21:32.531Z,977.31
2022-09-28T04:22:32.509Z,977.30
2022-09-28T04:23:32.498Z,977.26
2022-09-28T04:24:32.488Z,977.31
2022-09-28T04:25:32.476Z,977.24
2022-09-28T04:26:32.478Z,977.34
2022-09-28T04:27:32.462Z,977.24
2022-09-28T04:28:32.440Z,977.23
2022-09-28T04:29:32.437Z,977.27
2022-09-28T04:30:32.408Z,977.33
2022-09-28T04:31:32.479Z,977.28
2022-09-28T04:32:32.390Z,977.30
2022-09-28T04:33:32.389Z,977.31
2022-09-28T04:34:35.876Z,977.27
2022-09-28T04:35:33.362Z,977.32
2022-09-28T04:36:32.349Z,977.28
2022-09-28T04:37:32.362Z,977.24
2022-09-28T04:38:51.913Z,977.32
2022-09-28T04:39:33.410Z,977.34
2022-09-28T04:40:32.353Z,977.32
2022-09-28T04:41:32.296Z,977.36
2022-09-28T04:42:32.279Z,977.32
2022-09-28T04:43:32.288Z,977.35
2022-09-28T04:44:32.259Z,977.35
2022-09-28T04:45:32.293Z,977.34
2022-09-28T04:46:32.228Z,977.35
2022-09-28T04:47:32.218Z,977.39
2022-09-28T04:48:32.209Z,977.42
2022-09-28T04:49:32.224Z,977.46
2022-09-28T04:50:32.194Z,977.41
2022-09-28T04:51:32.179Z,977.51
2022-09-28T04:52:32.159Z,977.46
2022-09-28T04:53:32.158Z,977.46
2022-09-28T04:54:32.138Z,977.55
2022-09-28T04:55:32.151Z,977.54
2022-09-28T04:56:32.119Z,977.54
2022-09-28T04:57:32.139Z,977.50
2022-09-28T04:58:32.098Z,977.52
2022-09-28T04:59:32.092Z,977.51
2022-09-28T05:00:32.097Z,977.55
2022-09-28T05:01:32.146Z,977.54
2022-09-28T05:02:32.144Z,977.50
2022-09-28T05:03:32.040Z,977.54
2022-09-28T05:04:32.031Z,977.57
2022-09-28T05:05:32.038Z,977.57
2022-09-28T05:06:32.026Z,977.57
2022-09-28T05:07:31.999Z,977.59
2022-09-28T05:08:31.987Z,977.63
2022-09-28T05:09:34.989Z,977.56
2022-09-28T05:10:32.958Z,977.63
2022-09-28T05:11:31.973Z,977.62
2022-09-28T05:12:31.939Z,977.65
2022-09-28T05:13:31.931Z,977.64
2022-09-28T05:14:31.911Z,977.64
2022-09-28T05:15:31.908Z,977.69
2022-09-28T05:16:31.903Z,977.78
2022-09-28T05:17:31.909Z,977.74
2022-09-28T05:18:31.869Z,977.75
2022-09-28T05:19:31.857Z,977.76
2022-09-28T05:20:31.842Z,977.77
2022-09-28T05:21:31.838Z,977.77
2022-09-28T05:22:31.818Z,977.76
2022-09-28T05:23:33.482Z,977.71
2022-09-28T05:24:31.807Z,977.72
2022-09-28T05:25:31.798Z,977.74
2022-09-28T05:26:31.777Z,977.73
2022-09-28T05:27:31.770Z,977.78
2022-09-28T05:28:31.799Z,977.74
2022-09-28T05:29:32.579Z,977.75
2022-09-28T05:30:31.735Z,977.77
2022-09-28T05:31:31.790Z,977.76
2022-09-28T05:32:31.710Z,977.80
2022-09-28T05:33:31.708Z,977.79
2022-09-28T05:34:31.699Z,977.79
2022-09-28T05:35:31.680Z,977.78
2022-09-28T05:36:31.658Z,977.79
2022-09-28T05:37:31.658Z,977.77
2022-09-28T05:38:31.641Z,977.80
2022-09-28T05:39:31.657Z,977.81
2022-09-28T05:40:31.688Z,977.85
2022-09-28T05:41:31.616Z,977.88
2022-09-28T05:42:31.936Z,977.88
2022-09-28T05:43:31.587Z,977.88
2022-09-28T05:44:31.579Z,977.92
2022-09-28T05:45:31.661Z,977.90
2022-09-28T05:46:31.547Z,977.84
2022-09-28T05:47:31.541Z,977.87
2022-09-28T05:48:31.529Z,977.86
2022-09-28T05:49:31.521Z,977.87
2022-09-28T05:50:31.506Z,977.87
2022-09-28T05:51:31.519Z,977.86
2022-09-28T05:52:31.479Z,977.94
2022-09-28T05:53:31.479Z,977.93
2022-09-28T05:54:31.457Z,977.95
2022-09-28T05:55:31.488Z,977.94
2022-09-28T05:56:31.459Z,977.90
2022-09-28T05:57:31.428Z,977.91
2022-09-28T05:58:31.416Z,977.88
2022-09-28T05:59:31.408Z,977.89
2022-09-28T06:00:31.407Z,977.85
2022-09-28T06:01:31.500Z,977.86
2022-09-28T06:02:31.428Z,977.89
2022-09-28T06:03:31.368Z,977.94
2022-09-28T06:04:31.354Z,977.95
2022-09-28T06:05:31.336Z,977.91
2022-09-28T06:06:31.330Z,977.94
2022-09-28T06:07:31.308Z,977.94
2022-09-28T06:08:31.326Z,977.92
2022-09-28T06:09:31.290Z,977.96
2022-09-28T06:10:31.286Z,977.96
2022-09-28T06:11:31.269Z,977.95
2022-09-28T06:12:31.258Z,977.98
2022-09-28T06:13:31.267Z,977.94
2022-09-28T06:14:31.239Z,977.95
2022-09-28T06:15:31.229Z,977.99
2022-09-28T06:16:31.273Z,978.01
2022-09-28T06:17:31.198Z,978.02
2022-09-28T06:18:31.197Z,978.07
2022-09-28T06:19:31.198Z,978.03
2022-09-28T06:20:31.168Z,977.97
2022-09-28T06:21:31.157Z,978.00
2022-09-28T06:22:31.147Z,978.01
2022-09-28T06:23:31.137Z,978.02
2022-09-28T06:24:31.117Z,978.04
2022-09-28T06:25:31.138Z,978.00
2022-09-28T06:26:31.105Z,978.08
2022-09-28T06:27:31.087Z,978.04
2022-09-28T06:28:31.078Z,978.04
2022-09-28T06:29:31.068Z,977.97
2022-09-28T06:30:31.098Z,978.06
2022-09-28T06:31:31.066Z,978.02
2022-09-28T06:32:31.036Z,978.07
2022-09-28T06:33:31.017Z,977.98
2022-09-28T06:34:31.018Z,977.99
2022-09-28T06:35:31.014Z,977.95
2022-09-28T06:36:30.988Z,977.99
2022-09-28T06:37:30.998Z,978.02
2022-09-28T06:38:30.966Z,978.04
2022-09-28T06:39:30.947Z,977.94
2022-09-28T06:40:30.986Z,977.98
2022-09-28T06:41:30.930Z,977.99
2022-09-28T06:42:30.946Z,978.04
2022-09-28T06:43:34.234Z,978.13
2022-09-28T06:44:30.901Z,978.10
2022-09-28T06:45:30.878Z,978.06
2022-09-28T06:46:30.906Z,978.22
2022-09-28T06:47:30.858Z,978.12
2022-09-28T06:48:30.868Z,978.11
2022-09-28T06:49:30.835Z,978.13
2022-09-28T06:50:30.827Z,978.14
2022-09-28T06:51:30.809Z,978.13
2022-09-28T06:52:30.799Z,978.07
2022-09-28T06:53:30.801Z,978.17
2022-09-28T06:54:30.808Z,978.18
2022-09-28T06:55:30.768Z,978.16
2022-09-28T06:56:32.844Z,978.18
2022-09-28T06:57:30.747Z,978.29
2022-09-28T06:58:30.737Z,978.29
2022-09-28T06:59:30.748Z,978.32
2022-09-28T07:00:30.749Z,978.31
2022-09-28T07:01:30.778Z,978.31
2022-09-28T07:02:30.782Z,978.30
2022-09-28T07:03:30.671Z,978.36
2022-09-28T07:04:30.678Z,978.35
2022-09-28T07:05:30.675Z,978.28
2022-09-28T07:06:30.639Z,978.35
2022-09-28T07:07:30.628Z,978.30
2022-09-28T07:08:30.628Z,978.33
2022-09-28T07:09:32.896Z,978.37
2022-09-28T07:10:30.620Z,978.39
2022-09-28T07:11:30.579Z,978.40
2022-09-28T07:12:30.578Z,978.42
2022-09-28T07:13:48.828Z,978.46
2022-09-28T07:14:44.974Z,978.48
2022-09-28T07:15:31.558Z,978.47
2022-09-28T07:16:51.555Z,978.48
2022-09-28T07:17:31.763Z,978.45
2022-09-28T07:18:30.548Z,978.47
2022-09-28T07:19:30.500Z,978.46
2022-09-28T07:20:30.569Z,978.41
2022-09-28T07:21:30.819Z,978.50
2022-09-28T07:22:38.429Z,978.53
2022-09-28T07:23:32.105Z,978.58
2022-09-28T07:24:30.439Z,978.57
2022-09-28T07:25:30.430Z,978.60
2022-09-28T07:26:30.459Z,978.57
2022-09-28T07:27:30.401Z,978.67
2022-09-28T07:28:30.389Z,978.64
2022-09-28T07:29:30.379Z,978.67
2022-09-28T07:30:30.405Z,978.73
2022-09-28T07:31:30.363Z,978.69
2022-09-28T07:33:30.339Z,978.67
2022-09-28T07:34:30.319Z,978.69
2022-09-28T07:35:30.308Z,978.75
2022-09-28T07:36:30.298Z,978.75
2022-09-28T07:37:30.310Z,978.80
2022-09-28T07:38:30.281Z,978.83
2022-09-28T07:39:30.259Z,978.81
2022-09-28T07:40:30.300Z,978.83
2022-09-28T07:41:30.241Z,978.79
2022-09-28T07:42:30.231Z,978.77
2022-09-28T07:43:30.246Z,978.80
2022-09-28T07:44:30.210Z,978.83
2022-09-28T07:45:30.269Z,978.84
2022-09-28T07:46:30.180Z,978.88
2022-09-28T07:47:34.865Z,978.88
2022-09-28T07:48:31.180Z,978.85
2022-09-28T07:49:30.151Z,978.89
2022-09-28T07:50:30.131Z,978.92
2022-09-28T07:51:30.129Z,978.91
2022-09-28T07:52:30.117Z,978.93
2022-09-28T07:53:30.101Z,978.93
2022-09-28T07:54:30.109Z,978.98
2022-09-28T07:55:30.081Z,978.95
2022-09-28T07:56:30.069Z,978.99
2022-09-28T07:57:30.050Z,978.98
2022-09-28T07:58:30.042Z,979.01
2022-09-28T07:59:30.061Z,979.03
2022-09-28T08:00:33.975Z,979.09
2022-09-28T08:01:30.062Z,979.10
2022-09-28T08:02:30.023Z,979.13
2022-09-28T08:03:29.990Z,979.14
2022-09-28T08:04:29.980Z,979.16
2022-09-28T08:05:30.115Z,979.20
2022-09-28T08:06:29.951Z,979.16
2022-09-28T08:07:29.940Z,979.16
2022-09-28T08:08:29.941Z,979.22
2022-09-28T08:09:29.920Z,979.17
2022-09-28T08:10:29.942Z,979.25
2022-09-28T08:11:29.891Z,979.24
2022-09-28T08:12:29.881Z,979.26
2022-09-28T08:13:29.870Z,979.27
2022-09-28T08:14:29.861Z,979.27
2022-09-28T08:15:29.852Z,979.31
2022-09-28T08:16:29.974Z,979.30
2022-09-28T08:17:29.821Z,979.32
2022-09-28T08:18:29.819Z,979.35
2022-09-28T08:19:29.801Z,979.36
2022-09-28T08:20:29.791Z,979.33
2022-09-28T08:21:29.779Z,979.32
2022-09-28T08:22:29.792Z,979.44
2022-09-28T08:23:29.759Z,979.37
2022-09-28T08:24:29.749Z,979.47
2022-09-28T08:25:29.732Z,979.36
2022-09-28T08:26:29.721Z,979.42
2022-09-28T08:27:29.715Z,979.45
2022-09-28T08:28:29.719Z,979.51
2022-09-28T08:29:29.693Z,979.50
2022-09-28T08:30:29.705Z,979.50
2022-09-28T08:31:29.670Z,979.43
2022-09-28T08:32:29.662Z,979.48
2022-09-28T08:33:29.684Z,979.48
2022-09-28T08:34:29.636Z,979.55
2022-09-28T08:35:29.613Z,979.50
2022-09-28T08:36:29.611Z,979.50
2022-09-28T08:37:29.595Z,979.58
2022-09-28T08:38:29.587Z,979.59
2022-09-28T08:39:29.591Z,979.60
2022-09-28T08:40:29.671Z,979.62
2022-09-28T08:41:29.551Z,979.58
2022-09-28T08:42:29.558Z,979.67
2022-09-28T08:43:29.530Z,979.68
2022-09-28T08:44:29.522Z,979.62
2022-09-28T08:45:29.520Z,979.64
2022-09-28T08:46:29.559Z,979.72
2022-09-28T08:47:29.483Z,979.68
2022-09-28T08:48:29.471Z,979.68
2022-09-28T08:49:29.475Z,979.67
2022-09-28T08:50:29.655Z,979.65
2022-09-28T08:51:29.432Z,979.65
2022-09-28T08:52:29.421Z,979.68
2022-09-28T08:53:29.413Z,979.64
2022-09-28T08:54:29.404Z,979.64
2022-09-28T08:55:29.411Z,979.65
2022-09-28T08:56:29.381Z,979.71
2022-09-28T08:57:29.362Z,979.65
2022-09-28T08:58:29.361Z,979.68
2022-09-28T08:59:29.342Z,979.70
2022-09-28T09:00:29.332Z,979.64
2022-09-28T09:01:29.410Z,979.65
2022-09-28T09:02:29.357Z,979.64
2022-09-28T09:03:29.293Z,979.63
2022-09-28T09:04:29.293Z,979.67
2022-09-28T09:05:29.293Z,979.57
2022-09-28T09:06:29.264Z,979.65
2022-09-28T09:07:29.273Z,979.65
2022-09-28T09:08:29.243Z,979.64
2022-09-28T09:09:29.239Z,979.65
2022-09-28T09:10:29.223Z,979.68
2022-09-28T09:11:37.034Z,979.67
2022-09-28T09:12:30.413Z,979.76
2022-09-28T09:13:29.235Z,979.76
2022-09-28T09:14:29.214Z,979.73
2022-09-28T09:15:29.245Z,979.79
2022-09-28T09:16:29.217Z,979.73
2022-09-28T09:17:29.163Z,979.78
2022-09-28T09:18:29.144Z,979.87
2022-09-28T09:19:29.145Z,979.78
2022-09-28T09:20:29.135Z,979.79
2022-09-28T09:21:29.105Z,979.79
2022-09-28T09:22:29.105Z,979.83
2022-09-28T09:23:29.065Z,979.84
2022-09-28T09:24:29.074Z,979.83
2022-09-28T09:25:29.095Z,979.84
2022-09-28T09:26:29.035Z,979.83
2022-09-28T09:27:29.015Z,979.87
2022-09-28T09:28:29.005Z,979.85
2022-09-28T09:29:29.270Z,979.88
2022-09-28T09:30:31.596Z,979.87
2022-09-28T09:31:28.987Z,979.88
2022-09-28T09:32:28.965Z,979.91
2022-09-28T09:33:28.996Z,979.91
2022-09-28T09:34:28.943Z,979.90
2022-09-28T09:35:30.729Z,979.91
2022-09-28T09:36:28.937Z,979.88
2022-09-28T09:37:28.913Z,979.93
2022-09-28T09:38:28.926Z,979.90
2022-09-28T09:39:28.897Z,979.91
2022-09-28T09:40:29.250Z,979.93
2022-09-28T09:41:28.859Z,979.94
2022-09-28T09:42:28.906Z,979.92
2022-09-28T09:43:31.562Z,979.96
2022-09-28T09:44:28.836Z,979.97
2022-09-28T09:45:28.816Z,979.98
2022-09-28T09:46:28.807Z,979.94
2022-09-28T09:47:28.794Z,979.96
2022-09-28T09:48:28.797Z,979.95
2022-09-28T09:49:28.767Z,979.93
2022-09-28T09:50:28.757Z,979.98
2022-09-28T09:51:28.746Z,979.93
2022-09-28T09:52:28.798Z,980.03
2022-09-28T09:53:28.817Z,979.89
2022-09-28T09:54:28.716Z,980.01
2022-09-28T09:55:30.071Z,980.01
2022-09-28T09:56:28.687Z,979.99
2022-09-28T09:57:28.868Z,980.00
2022-09-28T09:58:28.761Z,979.94
2022-09-28T09:59:28.771Z,980.00
2022-09-28T10:00:28.658Z,980.00
2022-09-28T10:01:28.689Z,980.03
2022-09-28T10:02:28.690Z,979.98
2022-09-28T10:03:28.606Z,979.99
2022-09-28T10:04:28.610Z,980.05
2022-09-28T10:05:28.658Z,979.99
2022-09-28T10:06:28.609Z,979.97
2022-09-28T10:07:28.660Z,980.02
2022-09-28T10:08:28.728Z,979.98
2022-09-28T10:09:28.628Z,980.00
2022-09-28T10:10:28.602Z,979.97
2022-09-28T10:11:28.539Z,980.06
2022-09-28T10:12:28.512Z,980.00
2022-09-28T10:13:28.508Z,980.02
2022-09-28T10:14:28.478Z,980.04
2022-09-28T10:15:28.470Z,980.02
2022-09-28T10:16:28.587Z,980.03
2022-09-28T10:17:28.448Z,979.92
2022-09-28T10:18:28.598Z,979.95
2022-09-28T10:19:28.618Z,979.98
2022-09-28T10:20:28.408Z,979.90
2022-09-28T10:21:28.402Z,979.92
2022-09-28T10:22:28.510Z,979.93
2022-09-28T10:23:28.389Z,979.93
2022-09-28T10:24:28.369Z,979.98
2022-09-28T10:25:28.359Z,979.98
2022-09-28T10:26:28.339Z,979.96
2022-09-28T10:27:28.420Z,980.02
2022-09-28T10:28:28.399Z,979.95
2022-09-28T10:29:28.318Z,979.96
2022-09-28T10:30:28.379Z,979.97
2022-09-28T10:31:28.291Z,980.06
2022-09-28T10:32:28.270Z,979.96
2022-09-28T10:33:28.309Z,979.92
2022-09-28T10:34:28.253Z,980.03
2022-09-28T10:35:28.389Z,979.95
2022-09-28T10:36:28.244Z,979.96
2022-09-28T10:37:28.408Z,979.95
2022-09-28T10:38:28.291Z,979.98
2022-09-28T10:39:28.221Z,980.07
2022-09-28T10:40:28.285Z,980.04
2022-09-28T10:41:28.172Z,980.02
2022-09-28T10:42:28.180Z,980.02
2022-09-28T10:43:28.150Z,980.05
2022-09-28T10:44:28.137Z,980.07
2022-09-28T10:45:28.151Z,980.09
2022-09-28T10:46:28.179Z,980.12
2022-09-28T10:47:28.161Z,980.09
2022-09-28T10:48:28.113Z,980.17
2022-09-28T10:49:28.091Z,980.22
2022-09-28T10:50:28.090Z,980.19
2022-09-28T10:51:28.162Z,980.18
2022-09-28T10:52:28.072Z,980.21
2022-09-28T10:53:28.031Z,980.23
2022-09-28T10:54:28.020Z,980.22
2022-09-28T10:55:28.070Z,980.23
2022-09-28T10:56:28.133Z,980.25
2022-09-28T10:57:28.019Z,980.18
2022-09-28T10:58:28.002Z,980.22
2022-09-28T10:59:27.977Z,980.24
2022-09-28T11:00:28.012Z,980.25
2022-09-28T11:01:28.055Z,980.23
2022-09-28T11:02:30.362Z,980.27
2022-09-28T11:03:28.952Z,980.33
2022-09-28T11:04:27.913Z,980.26
2022-09-28T11:05:27.981Z,980.24
2022-09-28T11:06:27.883Z,980.24
2022-09-28T11:07:28.023Z,980.21
2022-09-28T11:08:27.853Z,980.30
2022-09-28T11:09:30.540Z,980.34
2022-09-28T11:10:27.842Z,980.25
2022-09-28T11:11:27.823Z,980.33
2022-09-28T11:12:27.817Z,980.31
2022-09-28T11:13:27.860Z,980.27
2022-09-28T11:14:27.783Z,980.24
2022-09-28T11:15:27.791Z,980.34
2022-09-28T11:16:27.801Z,980.32
2022-09-28T11:17:27.785Z,980.31
2022-09-28T11:18:27.743Z,980.32
2022-09-28T11:19:27.804Z,980.37
2022-09-28T11:20:28.601Z,980.34
2022-09-28T11:21:27.716Z,980.35
2022-09-28T11:22:27.702Z,980.36
2022-09-28T11:23:27.684Z,980.40
2022-09-28T11:24:27.706Z,980.33
2022-09-28T11:25:27.673Z,980.35
2022-09-28T11:26:27.669Z,980.40
2022-09-28T11:27:27.646Z,980.38
2022-09-28T11:28:27.631Z,980.28
2022-09-28T11:29:27.619Z,980.38
2022-09-28T11:30:27.759Z,980.39
2022-09-28T11:31:27.616Z,980.36
2022-09-28T11:32:27.597Z,980.31
2022-09-28T11:33:27.576Z,980.31
2022-09-28T11:34:36.420Z,980.29
2022-09-28T11:35:28.597Z,980.29
2022-09-28T11:36:27.535Z,980.24
2022-09-28T11:37:27.528Z,980.26
2022-09-28T11:38:27.604Z,980.23
2022-09-28T11:39:27.506Z,980.27
2022-09-28T11:40:27.558Z,980.19
2022-09-28T11:41:27.515Z,980.17
2022-09-28T11:42:27.487Z,980.31
2022-09-28T11:43:27.466Z,980.28
2022-09-28T11:44:30.975Z,980.28
2022-09-28T11:45:28.434Z,980.21
2022-09-28T11:46:27.466Z,980.26
2022-09-28T11:47:27.441Z,980.26
2022-09-28T11:48:27.398Z,980.15
2022-09-28T11:49:27.397Z,980.17
2022-09-28T11:50:27.377Z,980.26
2022-09-28T11:51:27.368Z,980.27
2022-09-28T11:52:27.347Z,980.19
2022-09-28T11:53:27.375Z,980.21
2022-09-28T11:54:27.327Z,980.16
2022-09-28T11:55:27.317Z,980.18
2022-09-28T11:56:27.298Z,980.23
2022-09-28T11:57:27.302Z,980.23
2022-09-28T11:58:27.297Z,980.19
2022-09-28T11:59:27.268Z,980.22
2022-09-28T12:00:27.257Z,980.20
2022-09-28T12:01:27.249Z,980.15
2022-09-28T12:02:27.375Z,980.18
2022-09-28T12:03:27.359Z,980.16
2022-09-28T12:04:27.269Z,980.15
2022-09-28T12:05:27.207Z,980.20
2022-09-28T12:06:27.219Z,980.17
2022-09-28T12:07:27.178Z,980.15
2022-09-28T12:08:27.159Z,980.19
2022-09-28T12:09:27.157Z,980.20
2022-09-28T12:10:27.161Z,980.19
2022-09-28T12:11:27.132Z,980.26
2022-09-28T12:12:27.118Z,980.22
2022-09-28T12:13:27.108Z,980.15
2022-09-28T12:14:27.090Z,980.15
2022-09-28T12:15:27.112Z,980.23
2022-09-28T12:17:00.405Z,980.16
2022-09-28T12:17:28.095Z,980.27
2022-09-28T12:18:27.049Z,980.26
2022-09-28T12:19:27.194Z,980.22
2022-09-28T12:20:27.045Z,980.20
2022-09-28T12:21:27.043Z,980.20
2022-09-28T12:22:27.000Z,980.17
2022-09-28T12:23:26.992Z,980.26
2022-09-28T12:24:26.985Z,980.23
2022-09-28T12:25:26.970Z,980.21
2022-09-28T12:26:26.993Z,980.19
2022-09-28T12:27:27.032Z,980.16
2022-09-28T12:28:26.944Z,980.21
2022-09-28T12:29:26.921Z,980.18